Time,TemperatureF,DewpointF,PressureIn,WindDirection,WindDirectionDegrees,WindSpeedMPH,WindSpeedGustMPH,Humidity,HourlyPrecipIn,Conditions,Clouds,dailyrainin,SoftwareType,DateUTC
2013-08-17 00:05:00,57.6,57.0,30.11,South,180,0.0,-999.0,98,-99.99,,,0.00,Acu-Link.com,2013-08-17 04:05:00,
2013-08-17 00:21:00,57.4,56.8,30.11,South,180,0.0,-999.0,98,-99.99,,,0.00,Acu-Link.com,2013-08-17 04:21:00,
2013-08-17 00:36:00,57.6,57.0,30.11,NNE,22,0.0,-999.0,98,-99.99,,,0.00,Acu-Link.com,2013-08-17 04:36:00,
2013-08-17 00:51:00,57.4,56.8,30.12,NE,45,0.0,-999.0,98,-99.99,,,0.00,Acu-Link.com,2013-08-17 04:51:00,
2013-08-17 01:07:00,57.0,56.4,30.13,North,0,0.0,-999.0,98,-99.99,,,0.00,Acu-Link.com,2013-08-17 05:07:00,
2013-08-17 01:22:00,57.0,56.4,30.12,North,0,0.0,-999.0,98,-99.99,,,0.00,Acu-Link.com,2013-08-17 05:22:00,
2013-08-17 01:37:00,56.7,56.1,30.13,ESE,112,0.0,-999.0,98,-99.99,,,0.00,Acu-Link.com,2013-08-17 05:37:00,
2013-08-17 01:53:00,56.8,56.2,30.13,ESE,112,0.0,-999.0,98,-99.99,,,0.00,Acu-Link.com,2013-08-17 05:53:00,
2013-08-17 02:08:00,56.8,56.2,30.13,ESE,112,0.0,-999.0,98,-99.99,,,0.00,Acu-Link.com,2013-08-17 06:08:00,
2013-08-17 02:23:00,56.7,56.1,30.13,ESE,112,0.0,-999.0,98,-99.99,,,0.00,Acu-Link.com,2013-08-17 06:23:00,
2013-08-17 02:38:00,56.3,55.7,30.14,West,270,0.0,-999.0,98,-99.99,,,0.00,Acu-Link.com,2013-08-17 06:38:00,
2013-08-17 02:54:00,56.3,55.7,30.14,SSW,202,0.0,-999.0,98,-99.99,,,0.00,Acu-Link.com,2013-08-17 06:54:00,
2013-08-17 03:09:00,56.1,55.5,30.14,ESE,112,0.0,-999.0,98,-99.99,,,0.00,Acu-Link.com,2013-08-17 07:09:00,
2013-08-17 03:24:00,55.8,55.2,30.15,ESE,112,0.0,-999.0,98,-99.99,,,0.00,Acu-Link.com,2013-08-17 07:24:00,
2013-08-17 03:40:00,55.4,54.8,30.15,ESE,112,0.0,-999.0,98,-99.99,,,0.00,Acu-Link.com,2013-08-17 07:40:00,
2013-08-17 03:55:00,55.6,55.0,30.15,ESE,112,0.0,-999.0,98,-99.99,,,0.00,Acu-Link.com,2013-08-17 07:55:00,
2013-08-17 04:11:00,55.4,54.8,30.15,SSE,157,0.0,-999.0,98,-99.99,,,0.00,Acu-Link.com,2013-08-17 08:11:00,
2013-08-17 04:26:00,55.4,54.8,30.15,SSE,157,0.0,-999.0,98,-99.99,,,0.00,Acu-Link.com,2013-08-17 08:26:00,
2013-08-17 04:43:00,55.4,54.8,30.15,SSE,157,0.0,-999.0,98,-99.99,,,0.00,Acu-Link.com,2013-08-17 08:43:00,
2013-08-17 04:58:00,54.9,54.3,30.16,SSE,157,0.0,-999.0,98,-99.99,,,0.00,Acu-Link.com,2013-08-17 08:58:00,
2013-08-17 05:13:00,54.7,54.1,30.15,SSE,157,0.0,-999.0,98,-99.99,,,0.00,Acu-Link.com,2013-08-17 09:13:00,
2013-08-17 05:28:00,54.7,54.1,30.16,SSE,157,0.0,-999.0,98,-99.99,,,0.00,Acu-Link.com,2013-08-17 09:28:00,
2013-08-17 05:43:00,54.1,53.5,30.16,SSE,157,0.0,-999.0,98,-99.99,,,0.00,Acu-Link.com,2013-08-17 09:43:00,
2013-08-17 05:58:00,54.0,53.4,30.16,SSE,157,0.0,-999.0,98,-99.99,,,0.00,Acu-Link.com,2013-08-17 09:58:00,
2013-08-17 06:13:00,53.8,53.2,30.17,SSE,157,0.0,-999.0,98,-99.99,,,0.00,Acu-Link.com,2013-08-17 10:13:00,
2013-08-17 06:29:00,53.8,53.2,30.17,SSE,157,0.0,-999.0,98,-99.99,,,0.00,Acu-Link.com,2013-08-17 10:29:00,
2013-08-17 06:44:00,53.6,53.0,30.17,SSE,157,0.0,-999.0,98,-99.99,,,0.00,Acu-Link.com,2013-08-17 10:44:00,
2013-08-17 06:59:00,53.8,53.2,30.18,SSE,157,0.0,-999.0,98,-99.99,,,0.00,Acu-Link.com,2013-08-17 10:59:00,
2013-08-17 07:14:00,54.3,53.7,30.18,South,180,0.0,-999.0,98,-99.99,,,0.00,Acu-Link.com,2013-08-17 11:14:00,
2013-08-17 07:30:00,54.9,54.3,30.18,South,180,0.0,-999.0,98,-99.99,,,0.00,Acu-Link.com,2013-08-17 11:30:00,
2013-08-17 07:45:00,55.6,55.0,30.18,South,180,0.0,-999.0,98,-99.99,,,0.00,Acu-Link.com,2013-08-17 11:45:00,
2013-08-17 08:00:00,56.7,56.1,30.17,NNE,22,0.0,-999.0,98,-99.99,,,0.00,Acu-Link.com,2013-08-17 12:00:00,
2013-08-17 08:16:00,58.5,57.9,30.17,ESE,112,0.0,-999.0,98,-99.99,,,0.00,Acu-Link.com,2013-08-17 12:16:00,
2013-08-17 08:31:00,60.3,59.7,30.18,ESE,112,0.0,-999.0,98,-99.99,,,0.00,Acu-Link.com,2013-08-17 12:31:00,
2013-08-17 08:46:00,62.1,61.5,30.17,SW,225,0.0,-999.0,98,-99.99,,,0.00,Acu-Link.com,2013-08-17 12:46:00,
2013-08-17 09:02:00,67.5,66.9,30.18,South,180,0.0,-999.0,98,-99.99,,,0.00,Acu-Link.com,2013-08-17 13:02:00,
2013-08-17 09:17:00,73.9,67.7,30.19,ENE,67,0.0,-999.0,81,-99.99,,,0.00,Acu-Link.com,2013-08-17 13:17:00,
2013-08-17 09:32:00,77.7,67.1,30.20,East,90,3.2,-999.0,70,-99.99,,,0.00,Acu-Link.com,2013-08-17 13:32:00,
2013-08-17 09:48:00,81.9,67.6,30.19,ESE,112,1.7,-999.0,62,-99.99,,,0.00,Acu-Link.com,2013-08-17 13:48:00,
2013-08-17 10:03:00,77.4,65.1,30.20,ESE,112,3.2,-999.0,66,-99.99,,,0.00,Acu-Link.com,2013-08-17 14:03:00,
2013-08-17 10:18:00,77.7,65.0,30.19,ENE,67,2.7,-999.0,65,-99.99,,,0.00,Acu-Link.com,2013-08-17 14:18:00,
2013-08-17 10:33:00,76.1,63.9,30.19,South,180,1.1,-999.0,66,-99.99,,,0.00,Acu-Link.com,2013-08-17 14:33:00,
2013-08-17 10:49:00,78.4,64.7,30.19,SSW,202,0.0,-999.0,63,-99.99,,,0.00,Acu-Link.com,2013-08-17 14:49:00,
2013-08-17 11:04:00,78.8,65.1,30.19,SSW,202,1.1,-999.0,63,-99.99,,,0.00,Acu-Link.com,2013-08-17 15:04:00,
2013-08-17 11:19:00,79.2,63.1,30.19,ESE,112,0.0,-999.0,58,-99.99,,,0.00,Acu-Link.com,2013-08-17 15:19:00,
2013-08-17 11:34:00,77.7,63.2,30.18,SW,225,2.2,-999.0,61,-99.99,,,0.00,Acu-Link.com,2013-08-17 15:34:00,
2013-08-17 11:49:00,79.9,64.3,30.19,NE,45,1.1,-999.0,59,-99.99,,,0.00,Acu-Link.com,2013-08-17 15:49:00,
2013-08-17 12:04:00,79.9,62.3,30.18,ESE,112,3.2,-999.0,55,-99.99,,,0.00,Acu-Link.com,2013-08-17 16:04:00,
2013-08-17 12:19:00,79.5,61.4,30.18,ESE,112,2.2,-999.0,54,-99.99,,,0.00,Acu-Link.com,2013-08-17 16:19:00,
2013-08-17 12:35:00,79.0,60.4,30.17,East,90,0.0,-999.0,53,-99.99,,,0.00,Acu-Link.com,2013-08-17 16:35:00,
2013-08-17 12:50:00,79.5,59.2,30.16,WNW,292,2.7,-999.0,50,-99.99,,,0.00,Acu-Link.com,2013-08-17 16:50:00,
2013-08-17 13:05:00,82.0,63.2,30.16,North,0,0.0,-999.0,53,-99.99,,,0.00,Acu-Link.com,2013-08-17 17:05:00,
2013-08-17 13:20:00,82.0,59.8,30.16,SE,135,0.0,-999.0,47,-99.99,,,0.00,Acu-Link.com,2013-08-17 17:20:00,
2013-08-17 13:35:00,79.5,59.8,30.15,SE,135,1.1,-999.0,51,-99.99,,,0.00,Acu-Link.com,2013-08-17 17:35:00,
2013-08-17 13:51:00,80.2,58.7,30.14,ENE,67,2.2,-999.0,48,-99.99,,,0.00,Acu-Link.com,2013-08-17 17:51:00,
2013-08-17 14:06:00,81.0,60.6,30.14,North,0,2.7,-999.0,50,-99.99,,,0.00,Acu-Link.com,2013-08-17 18:06:00,
2013-08-17 14:21:00,80.6,59.1,30.14,SSE,157,0.0,-999.0,48,-99.99,,,0.00,Acu-Link.com,2013-08-17 18:21:00,
2013-08-17 14:37:00,80.8,62.0,30.14,East,90,1.1,-999.0,53,-99.99,,,0.00,Acu-Link.com,2013-08-17 18:37:00,
2013-08-17 14:52:00,81.5,59.9,30.12,West,270,1.7,-999.0,48,-99.99,,,0.00,Acu-Link.com,2013-08-17 18:52:00,
2013-08-17 15:07:00,81.1,61.8,30.13,SSE,157,0.0,-999.0,52,-99.99,,,0.00,Acu-Link.com,2013-08-17 19:07:00,
2013-08-17 15:23:00,81.9,62.0,30.11,East,90,2.2,-999.0,51,-99.99,,,0.00,Acu-Link.com,2013-08-17 19:23:00,
2013-08-17 15:38:00,81.7,60.7,30.12,NW,315,2.7,-999.0,49,-99.99,,,0.00,Acu-Link.com,2013-08-17 19:38:00,
2013-08-17 15:53:00,81.9,61.4,30.13,NNW,337,0.0,-999.0,50,-99.99,,,0.00,Acu-Link.com,2013-08-17 19:53:00,
2013-08-17 16:08:00,81.0,62.8,30.13,South,180,0.0,-999.0,54,-99.99,,,0.00,Acu-Link.com,2013-08-17 20:08:00,
2013-08-17 16:24:00,81.3,63.0,30.12,SSW,202,0.0,-999.0,54,-99.99,,,0.00,Acu-Link.com,2013-08-17 20:24:00,
2013-08-17 16:39:00,81.5,61.0,30.12,ESE,112,2.2,-999.0,50,-99.99,,,0.00,Acu-Link.com,2013-08-17 20:39:00,
2013-08-17 16:54:00,82.0,61.5,30.13,South,180,0.0,-999.0,50,-99.99,,,0.00,Acu-Link.com,2013-08-17 20:54:00,
2013-08-17 17:10:00,80.2,62.0,30.11,SSE,157,0.0,-999.0,54,-99.99,,,0.00,Acu-Link.com,2013-08-17 21:10:00,
2013-08-17 17:25:00,79.3,61.7,30.10,SSE,157,0.0,-999.0,55,-99.99,,,0.00,Acu-Link.com,2013-08-17 21:25:00,
2013-08-17 17:40:00,78.8,62.3,30.11,West,270,0.0,-999.0,57,-99.99,,,0.00,Acu-Link.com,2013-08-17 21:40:00,
2013-08-17 17:55:00,79.2,60.6,30.10,NNE,22,1.7,-999.0,53,-99.99,,,0.00,Acu-Link.com,2013-08-17 21:55:00,
2013-08-17 18:11:00,78.8,60.2,30.11,West,270,0.0,-999.0,53,-99.99,,,0.00,Acu-Link.com,2013-08-17 22:11:00,
2013-08-17 18:26:00,77.2,60.8,30.12,SE,135,0.0,-999.0,57,-99.99,,,0.00,Acu-Link.com,2013-08-17 22:26:00,
2013-08-17 18:41:00,76.3,58.9,30.11,SW,225,0.0,-999.0,55,-99.99,,,0.00,Acu-Link.com,2013-08-17 22:41:00,
2013-08-17 18:56:00,75.6,61.2,30.10,South,180,0.0,-999.0,61,-99.99,,,0.00,Acu-Link.com,2013-08-17 22:56:00,
2013-08-17 19:12:00,73.6,59.8,30.11,SW,225,0.0,-999.0,62,-99.99,,,0.00,Acu-Link.com,2013-08-17 23:12:00,
2013-08-17 19:27:00,72.1,60.1,30.11,SSW,202,0.0,-999.0,66,-99.99,,,0.00,Acu-Link.com,2013-08-17 23:27:00,
2013-08-17 19:42:00,71.4,60.7,30.10,WSW,247,0.0,-999.0,69,-99.99,,,0.00,Acu-Link.com,2013-08-17 23:42:00,
2013-08-17 19:57:00,70.3,59.2,30.11,SSE,157,0.0,-999.0,68,-99.99,,,0.00,Acu-Link.com,2013-08-17 23:57:00,
2013-08-17 20:13:00,69.4,60.7,30.11,SE,135,0.0,-999.0,74,-99.99,,,0.00,Acu-Link.com,2013-08-18 00:13:00,
2013-08-17 20:28:00,68.2,60.0,30.10,WNW,292,0.0,-999.0,75,-99.99,,,0.00,Acu-Link.com,2013-08-18 00:28:00,
2013-08-17 20:43:00,67.5,61.1,30.11,WNW,292,0.0,-999.0,80,-99.99,,,0.00,Acu-Link.com,2013-08-18 00:43:00,
2013-08-17 20:59:00,66.7,60.3,30.11,NE,45,0.0,-999.0,80,-99.99,,,0.00,Acu-Link.com,2013-08-18 00:59:00,
2013-08-17 21:14:00,66.4,60.7,30.12,WNW,292,0.0,-999.0,82,-99.99,,,0.00,Acu-Link.com,2013-08-18 01:14:00,
2013-08-17 21:29:00,66.2,61.6,30.13,ENE,67,0.0,-999.0,85,-99.99,,,0.00,Acu-Link.com,2013-08-18 01:29:00,
2013-08-17 21:45:00,64.9,60.9,30.12,SW,225,0.0,-999.0,87,-99.99,,,0.00,Acu-Link.com,2013-08-18 01:45:00,
2013-08-17 22:00:00,64.2,61.2,30.14,SSE,157,0.0,-999.0,90,-99.99,,,0.00,Acu-Link.com,2013-08-18 02:00:00,
2013-08-17 22:15:00,63.7,61.0,30.13,SSE,157,0.0,-999.0,91,-99.99,,,0.00,Acu-Link.com,2013-08-18 02:15:00,
2013-08-17 22:30:00,63.1,61.3,30.13,SSE,157,0.0,-999.0,94,-99.99,,,0.00,Acu-Link.com,2013-08-18 02:30:00,
2013-08-17 22:46:00,62.6,60.5,30.12,SSE,157,0.0,-999.0,93,-99.99,,,0.00,Acu-Link.com,2013-08-18 02:46:00,
2013-08-17 23:01:00,62.2,60.7,30.13,SSE,157,0.0,-999.0,95,-99.99,,,0.00,Acu-Link.com,2013-08-18 03:01:00,
2013-08-17 23:16:00,62.1,61.5,30.13,SSE,157,0.0,-999.0,98,-99.99,,,0.00,Acu-Link.com,2013-08-18 03:16:00,
2013-08-17 23:31:00,61.7,61.1,30.14,SSE,157,0.0,-999.0,98,-99.99,,,0.00,Acu-Link.com,2013-08-18 03:31:00,
2013-08-17 23:47:00,61.3,60.7,30.14,East,90,0.0,-999.0,98,-99.99,,,0.00,Acu-Link.com,2013-08-18 03:47:00,